createdAt,value
2018-07-15T00:00:33.541Z,56.73
2018-07-15T00:01:37.057Z,56.70
2018-07-15T00:02:40.507Z,56.76
2018-07-15T00:03:43.930Z,56.82
2018-07-15T00:04:47.386Z,56.54
2018-07-15T00:05:50.808Z,56.12
2018-07-15T00:06:54.200Z,56.23
2018-07-15T00:07:57.701Z,56.95
2018-07-15T00:09:01.122Z,56.44
2018-07-15T00:10:04.593Z,56.55
2018-07-15T00:11:08.127Z,56.53
2018-07-15T00:12:11.513Z,57.01
2018-07-15T00:13:15.423Z,56.76
2018-07-15T00:14:18.872Z,56.49
2018-07-15T00:15:22.322Z,57.17
2018-07-15T00:16:25.760Z,57.43
2018-07-15T00:17:29.187Z,57.20
2018-07-15T00:18:32.610Z,57.35
2018-07-15T00:19:36.100Z,56.67
2018-07-15T00:20:39.508Z,56.50
2018-07-15T00:21:42.933Z,57.21
2018-07-15T00:22:46.316Z,57.25
2018-07-15T00:23:49.750Z,56.89
2018-07-15T00:24:53.162Z,56.79
2018-07-15T00:25:56.545Z,56.59
2018-07-15T00:26:59.998Z,57.31
2018-07-15T00:28:03.726Z,57.30
2018-07-15T00:29:07.163Z,56.82
2018-07-15T00:30:10.574Z,57.02
2018-07-15T00:31:13.969Z,56.93
2018-07-15T00:32:17.517Z,57.25
2018-07-15T00:33:20.993Z,56.82
2018-07-15T00:34:24.486Z,56.69
2018-07-15T00:35:27.904Z,57.20
2018-07-15T00:36:31.328Z,57.32
2018-07-15T00:37:34.730Z,57.35
2018-07-15T00:38:38.260Z,56.89
2018-07-15T00:39:41.662Z,57.00
2018-07-15T00:40:45.121Z,57.55
2018-07-15T00:41:48.545Z,57.34
2018-07-15T00:42:52.288Z,56.78
2018-07-15T00:43:55.732Z,57.26
2018-07-15T00:44:59.196Z,56.95
2018-07-15T00:46:02.694Z,56.85
2018-07-15T00:47:06.123Z,57.58
2018-07-15T00:48:09.688Z,57.46
2018-07-15T00:49:13.272Z,56.82
2018-07-15T00:50:16.771Z,57.47
2018-07-15T00:51:20.236Z,57.17
2018-07-15T00:52:23.652Z,57.18
2018-07-15T00:53:27.065Z,57.25
2018-07-15T00:54:30.578Z,56.95
2018-07-15T00:55:33.986Z,57.53
2018-07-15T00:56:37.428Z,56.99
2018-07-15T00:57:40.831Z,57.40
2018-07-15T00:58:44.239Z,57.06
2018-07-15T00:59:47.606Z,57.79
2018-07-15T01:00:56.290Z,56.90
2018-07-15T01:01:59.708Z,57.74
2018-07-15T01:03:03.118Z,56.86
2018-07-15T01:04:07.018Z,56.91
2018-07-15T01:05:10.577Z,57.07
2018-07-15T01:06:14.018Z,57.73
2018-07-15T01:07:17.433Z,57.66
2018-07-15T01:08:20.848Z,57.81
2018-07-15T01:09:24.263Z,57.31
2018-07-15T01:10:27.728Z,57.39
2018-07-15T01:11:31.168Z,57.14
2018-07-15T01:12:34.629Z,57.95
2018-07-15T01:13:38.056Z,57.39
2018-07-15T01:14:41.442Z,57.40
2018-07-15T01:15:44.844Z,57.79
2018-07-15T01:16:48.235Z,57.21
2018-07-15T01:17:51.646Z,58.02
2018-07-15T01:18:55.048Z,57.96
2018-07-15T01:19:58.450Z,58.32
2018-07-15T01:21:01.830Z,57.99
2018-07-15T01:22:05.298Z,58.23
2018-07-15T01:23:08.721Z,58.10
2018-07-15T01:24:12.153Z,58.09
2018-07-15T01:25:15.559Z,57.73
2018-07-15T01:26:18.983Z,57.83
2018-07-15T01:27:22.394Z,57.82
2018-07-15T01:28:25.806Z,58.19
2018-07-15T01:29:29.226Z,58.54
2018-07-15T01:30:32.656Z,58.37
2018-07-15T01:31:36.214Z,57.89
2018-07-15T01:32:39.669Z,58.20
2018-07-15T01:33:43.077Z,58.21
2018-07-15T01:34:46.472Z,58.85
2018-07-15T01:35:49.846Z,58.71
2018-07-15T01:36:53.303Z,59.20
2018-07-15T01:37:56.712Z,58.72
2018-07-15T01:39:00.181Z,58.28
2018-07-15T01:40:03.605Z,58.19
2018-07-15T01:41:07.061Z,58.04
2018-07-15T01:42:10.468Z,59.07
2018-07-15T01:43:13.876Z,59.02
2018-07-15T01:44:17.303Z,58.42
2018-07-15T01:45:20.741Z,58.37
2018-07-15T01:46:24.122Z,58.53
2018-07-15T01:47:27.506Z,58.62
2018-07-15T01:48:30.944Z,58.78
2018-07-15T01:49:34.360Z,58.76
2018-07-15T01:50:37.766Z,58.70
2018-07-15T01:51:41.225Z,58.51
2018-07-15T01:52:44.624Z,58.87
2018-07-15T01:53:48.285Z,58.36
2018-07-15T01:54:51.816Z,57.91
2018-07-15T01:55:55.242Z,58.67
2018-07-15T01:56:58.672Z,57.93
2018-07-15T01:58:02.594Z,58.69
2018-07-15T01:59:06.167Z,57.99
2018-07-15T02:00:09.966Z,58.15
2018-07-15T02:01:13.381Z,58.19
2018-07-15T02:02:16.827Z,58.83
2018-07-15T02:03:20.249Z,58.22
2018-07-15T02:04:23.642Z,57.77
2018-07-15T02:05:27.098Z,58.26
2018-07-15T02:06:30.534Z,58.11
2018-07-15T02:07:33.957Z,58.03
2018-07-15T02:08:37.354Z,58.53
2018-07-15T02:09:40.847Z,58.09
2018-07-15T02:10:44.302Z,58.06
2018-07-15T02:11:47.729Z,58.30
2018-07-15T02:12:51.108Z,58.52
2018-07-15T02:13:54.512Z,58.49
2018-07-15T02:14:58.123Z,58.64
2018-07-15T02:16:01.537Z,57.95
2018-07-15T02:17:04.989Z,58.51
2018-07-15T02:18:08.417Z,57.81
2018-07-15T02:19:11.840Z,58.64
2018-07-15T02:20:15.227Z,58.67
2018-07-15T02:21:18.650Z,58.31
2018-07-15T02:22:22.075Z,58.59
2018-07-15T02:23:25.568Z,58.32
2018-07-15T02:24:28.988Z,58.12
2018-07-15T02:25:32.382Z,58.92
2018-07-15T02:26:35.789Z,58.84
2018-07-15T02:27:39.206Z,58.37
2018-07-15T02:28:42.659Z,58.41
2018-07-15T02:29:46.059Z,58.53
2018-07-15T02:30:49.458Z,58.37
2018-07-15T02:31:52.850Z,58.80
2018-07-15T02:32:56.257Z,58.37
2018-07-15T02:33:59.652Z,58.67
2018-07-15T02:35:03.142Z,58.33
2018-07-15T02:36:06.647Z,58.33
2018-07-15T02:37:10.354Z,58.09
2018-07-15T02:38:13.750Z,58.71
2018-07-15T02:39:17.186Z,58.95
2018-07-15T02:40:20.593Z,59.02
2018-07-15T02:41:24.023Z,58.65
2018-07-15T02:42:27.431Z,58.94
2018-07-15T02:43:30.834Z,58.34
2018-07-15T02:44:34.241Z,59.00
2018-07-15T02:45:37.743Z,58.40
2018-07-15T02:46:41.203Z,59.02
2018-07-15T02:47:44.641Z,58.52
2018-07-15T02:48:48.066Z,58.63
2018-07-15T02:49:51.470Z,58.91
2018-07-15T02:50:54.921Z,58.83
2018-07-15T02:51:58.339Z,58.64
2018-07-15T02:53:01.787Z,58.48
2018-07-15T02:54:05.248Z,59.46
2018-07-15T02:55:08.688Z,59.02
2018-07-15T02:56:12.135Z,58.80
2018-07-15T02:57:15.560Z,58.79
2018-07-15T02:58:18.962Z,59.17
2018-07-15T02:59:22.468Z,58.56
2018-07-15T03:00:28.712Z,58.48
2018-07-15T03:01:32.146Z,59.18
2018-07-15T03:02:35.748Z,59.11
2018-07-15T03:03:39.168Z,58.89
2018-07-15T03:04:42.610Z,59.02
2018-07-15T03:05:46.028Z,59.01
2018-07-15T03:06:49.401Z,59.08
2018-07-15T03:07:52.801Z,59.29
2018-07-15T03:08:56.196Z,58.60
2018-07-15T03:09:59.599Z,59.49
2018-07-15T03:11:03.027Z,59.07
2018-07-15T03:12:06.496Z,58.53
2018-07-15T03:13:09.950Z,59.50
2018-07-15T03:14:13.371Z,59.38
2018-07-15T03:15:16.758Z,59.57
2018-07-15T03:16:20.232Z,59.34
2018-07-15T03:17:23.788Z,59.65
2018-07-15T03:18:27.118Z,59.04
2018-07-15T03:19:30.526Z,58.72
2018-07-15T03:20:33.916Z,59.30
2018-07-15T03:21:37.369Z,59.32
2018-07-15T03:22:40.761Z,58.75
2018-07-15T03:23:44.161Z,59.20
2018-07-15T03:24:47.554Z,58.67
2018-07-15T03:25:50.937Z,58.72
2018-07-15T03:26:54.472Z,58.91
2018-07-15T03:27:57.854Z,59.50
2018-07-15T03:29:01.263Z,58.83
2018-07-15T03:30:04.809Z,59.47
2018-07-15T03:31:08.263Z,58.72
2018-07-15T03:32:11.731Z,58.88
2018-07-15T03:33:15.133Z,59.02
2018-07-15T03:34:18.519Z,58.79
2018-07-15T03:35:21.939Z,59.78
2018-07-15T03:36:25.353Z,59.85
2018-07-15T03:37:28.792Z,59.18
2018-07-15T03:38:32.228Z,59.27
2018-07-15T03:39:35.651Z,59.80
2018-07-15T03:40:39.052Z,59.52
2018-07-15T03:41:42.448Z,59.68
2018-07-15T03:42:46.106Z,59.69
2018-07-15T03:43:50.115Z,59.21
2018-07-15T03:44:53.559Z,59.87
2018-07-15T03:45:56.964Z,59.07
2018-07-15T03:47:00.422Z,59.70
2018-07-15T03:48:03.901Z,59.48
2018-07-15T03:49:07.340Z,59.25
2018-07-15T03:50:10.790Z,59.23
2018-07-15T03:51:14.217Z,59.47
2018-07-15T03:52:17.616Z,59.08
2018-07-15T03:53:21.030Z,59.36
2018-07-15T03:54:24.415Z,59.98
2018-07-15T03:55:27.823Z,59.79
2018-07-15T03:56:31.262Z,59.48
2018-07-15T03:57:34.794Z,59.35
2018-07-15T03:58:38.193Z,59.43
2018-07-15T03:59:41.620Z,59.84
2018-07-15T04:00:45.182Z,59.91
2018-07-15T04:01:48.596Z,59.77
2018-07-15T04:02:52.003Z,59.61
2018-07-15T04:03:55.425Z,59.33
2018-07-15T04:04:58.833Z,59.51
2018-07-15T04:06:02.251Z,60.01
2018-07-15T04:07:05.707Z,59.30
2018-07-15T04:08:09.137Z,59.18
2018-07-15T04:09:12.558Z,59.53
2018-07-15T04:10:15.981Z,59.99
2018-07-15T04:11:19.390Z,59.52
2018-07-15T04:12:22.814Z,60.42
2018-07-15T04:13:26.208Z,59.40
2018-07-15T04:14:29.633Z,59.51
2018-07-15T04:15:33.069Z,59.76
2018-07-15T04:16:36.469Z,59.52
2018-07-15T04:17:39.910Z,59.22
2018-07-15T04:18:43.325Z,59.17
2018-07-15T04:19:46.786Z,59.50
2018-07-15T04:20:50.220Z,59.43
2018-07-15T04:21:53.608Z,60.25
2018-07-15T04:22:57.009Z,59.40
2018-07-15T04:24:00.431Z,60.01
2018-07-15T04:25:03.893Z,60.04
2018-07-15T04:26:07.290Z,59.87
2018-07-15T04:27:10.791Z,60.16
2018-07-15T04:28:14.173Z,59.70
2018-07-15T04:29:17.590Z,59.51
2018-07-15T04:30:21.075Z,59.97
2018-07-15T04:31:24.470Z,60.42
2018-07-15T04:32:27.860Z,59.80
2018-07-15T04:33:31.282Z,59.79
2018-07-15T04:34:34.705Z,59.59
2018-07-15T04:35:38.162Z,60.22
2018-07-15T04:36:41.556Z,59.93
2018-07-15T04:37:44.958Z,59.70
2018-07-15T04:38:48.391Z,59.65
2018-07-15T04:39:51.832Z,59.81
2018-07-15T04:40:55.248Z,60.34
2018-07-15T04:41:58.651Z,60.42
2018-07-15T04:43:02.096Z,59.92
2018-07-15T04:44:05.889Z,60.72
2018-07-15T04:45:09.316Z,60.86
2018-07-15T04:46:12.778Z,59.92
2018-07-15T04:47:16.182Z,60.25
2018-07-15T04:48:19.585Z,59.75
2018-07-15T04:49:23.016Z,59.63
2018-07-15T04:50:26.437Z,60.15
2018-07-15T04:51:29.883Z,60.12
2018-07-15T04:52:33.536Z,59.55
2018-07-15T04:53:37.035Z,60.51
2018-07-15T04:54:40.429Z,59.72
2018-07-15T04:55:43.849Z,60.32
2018-07-15T04:56:47.316Z,59.95
2018-07-15T04:57:50.756Z,60.05
2018-07-15T04:58:54.337Z,60.33
2018-07-15T05:00:00.150Z,60.15
2018-07-15T05:01:04.046Z,60.27
2018-07-15T05:02:07.569Z,60.42
2018-07-15T05:03:10.907Z,60.18
2018-07-15T05:04:14.930Z,60.48
2018-07-15T05:05:18.352Z,60.35
2018-07-15T05:06:21.737Z,60.51
2018-07-15T05:07:25.148Z,60.00
2018-07-15T05:08:28.593Z,59.97
2018-07-15T05:09:33.578Z,60.62
2018-07-15T05:10:37.021Z,60.55
2018-07-15T05:11:40.443Z,59.84
2018-07-15T05:12:43.903Z,59.82
2018-07-15T05:13:47.290Z,60.36
2018-07-15T05:14:50.760Z,59.91
2018-07-15T05:15:54.147Z,60.64
2018-07-15T05:16:57.555Z,60.26
2018-07-15T05:18:01.071Z,60.59
2018-07-15T05:19:04.568Z,60.34
2018-07-15T05:20:07.975Z,60.53
2018-07-15T05:21:11.381Z,60.14
2018-07-15T05:22:14.750Z,60.57
2018-07-15T05:23:18.202Z,60.74
2018-07-15T05:24:22.437Z,60.00
2018-07-15T05:25:25.833Z,60.80
2018-07-15T05:26:29.304Z,60.65
2018-07-15T05:27:32.769Z,60.52
2018-07-15T05:28:36.291Z,60.68
2018-07-15T05:29:39.694Z,60.20
2018-07-15T05:30:43.144Z,60.28
2018-07-15T05:31:46.552Z,60.40
2018-07-15T05:32:49.988Z,60.74
2018-07-15T05:33:53.423Z,61.06
2018-07-15T05:34:56.886Z,60.96
2018-07-15T05:36:00.240Z,60.97
2018-07-15T05:37:03.680Z,60.28
2018-07-15T05:38:07.068Z,60.07
2018-07-15T05:39:10.490Z,60.55
2018-07-15T05:40:13.913Z,60.44
2018-07-15T05:41:17.322Z,61.10
2018-07-15T05:42:20.712Z,61.24
2018-07-15T05:43:24.152Z,60.57
2018-07-15T05:44:27.545Z,60.60
2018-07-15T05:45:30.965Z,60.54
2018-07-15T05:46:34.394Z,60.52
2018-07-15T05:47:37.833Z,61.10
2018-07-15T05:48:41.213Z,60.84
2018-07-15T05:49:44.632Z,60.53
2018-07-15T05:50:48.014Z,60.71
2018-07-15T05:51:51.544Z,61.03
2018-07-15T05:52:54.972Z,61.02
2018-07-15T05:53:58.368Z,60.80
2018-07-15T05:55:01.778Z,60.61
2018-07-15T05:56:06.295Z,60.93
2018-07-15T05:57:09.703Z,60.91
2018-07-15T05:58:13.101Z,61.17
2018-07-15T05:59:16.534Z,61.34
2018-07-15T06:00:19.938Z,60.94
2018-07-15T06:01:23.619Z,60.76
2018-07-15T06:02:27.023Z,61.12
2018-07-15T06:03:31.430Z,61.48
2018-07-15T06:04:34.844Z,60.88
2018-07-15T06:05:38.297Z,60.97
2018-07-15T06:06:41.712Z,61.10
2018-07-15T06:07:45.095Z,60.88
2018-07-15T06:08:48.512Z,61.22
2018-07-15T06:09:51.928Z,61.61
2018-07-15T06:10:55.400Z,61.30
2018-07-15T06:11:58.819Z,61.40
2018-07-15T06:13:02.249Z,61.30
2018-07-15T06:14:05.698Z,61.36
2018-07-15T06:15:09.117Z,60.80
2018-07-15T06:16:12.560Z,60.95
2018-07-15T06:17:15.965Z,61.11
2018-07-15T06:18:19.411Z,61.29
2018-07-15T06:19:22.879Z,61.15
2018-07-15T06:20:26.313Z,61.32
2018-07-15T06:21:29.815Z,61.39
2018-07-15T06:22:33.259Z,61.76
2018-07-15T06:23:36.686Z,61.40
2018-07-15T06:24:40.160Z,61.19
2018-07-15T06:25:43.560Z,60.89
2018-07-15T06:26:46.970Z,61.25
2018-07-15T06:27:50.380Z,61.61
2018-07-15T06:28:53.914Z,61.16
2018-07-15T06:29:57.310Z,61.26
2018-07-15T06:31:00.708Z,60.95
2018-07-15T06:32:04.179Z,61.33
2018-07-15T06:33:07.618Z,61.48
2018-07-15T06:34:11.017Z,61.24
2018-07-15T06:35:14.432Z,61.27
2018-07-15T06:36:17.836Z,61.21
2018-07-15T06:37:21.313Z,61.15
2018-07-15T06:38:24.766Z,61.13
2018-07-15T06:39:28.156Z,61.72
2018-07-15T06:40:31.921Z,61.73
2018-07-15T06:41:35.366Z,61.09
2018-07-15T06:42:38.780Z,61.58
2018-07-15T06:43:42.213Z,61.59
2018-07-15T06:44:45.618Z,60.92
2018-07-15T06:45:49.003Z,59.65
2018-07-15T06:46:52.509Z,57.60
2018-07-15T06:47:56.025Z,55.90
2018-07-15T06:49:03.364Z,55.86
2018-07-15T06:50:12.963Z,55.97
2018-07-15T06:51:17.333Z,55.77
2018-07-15T06:52:21.042Z,55.54
2018-07-15T06:53:24.600Z,54.85
2018-07-15T06:54:28.304Z,54.67
2018-07-15T06:55:32.009Z,54.12
2018-07-15T06:56:35.397Z,54.95
2018-07-15T06:57:38.861Z,55.34
2018-07-15T06:58:44.416Z,54.99
2018-07-15T06:59:47.821Z,54.98
2018-07-15T07:00:51.469Z,54.59
2018-07-15T07:01:54.945Z,54.63
2018-07-15T07:02:58.722Z,54.07
2018-07-15T07:04:02.242Z,53.96
2018-07-15T07:05:05.716Z,53.80
2018-07-15T07:06:09.160Z,53.92
2018-07-15T07:07:12.650Z,53.85
2018-07-15T07:08:16.198Z,53.20
2018-07-15T07:09:19.612Z,53.90
2018-07-15T07:10:22.999Z,53.29
2018-07-15T07:11:26.510Z,53.90
2018-07-15T07:12:30.011Z,53.83
2018-07-15T07:13:33.435Z,54.14
2018-07-15T07:14:36.963Z,53.03
2018-07-15T07:15:40.385Z,53.60
2018-07-15T07:16:43.803Z,53.06
2018-07-15T07:17:47.193Z,53.41
2018-07-15T07:18:50.626Z,53.63
2018-07-15T07:19:54.060Z,53.04
2018-07-15T07:20:57.526Z,53.32
2018-07-15T07:22:00.968Z,52.45
2018-07-15T07:23:04.452Z,52.99
2018-07-15T07:24:07.864Z,53.11
2018-07-15T07:25:11.377Z,52.52
2018-07-15T07:26:14.783Z,52.32
2018-07-15T07:27:18.252Z,52.57
2018-07-15T07:28:21.818Z,52.76
2018-07-15T07:29:25.292Z,52.65
2018-07-15T07:30:28.893Z,52.04
2018-07-15T07:31:32.428Z,52.02
2018-07-15T07:32:36.279Z,51.66
2018-07-15T07:33:39.822Z,51.83
2018-07-15T07:34:43.387Z,51.44
2018-07-15T07:35:46.959Z,51.44
2018-07-15T07:36:50.979Z,51.28
2018-07-15T07:37:54.476Z,50.83
2018-07-15T07:38:57.908Z,51.36
2018-07-15T07:40:01.323Z,51.40
2018-07-15T07:41:04.877Z,51.53
2018-07-15T07:42:08.507Z,51.32
2018-07-15T07:43:11.925Z,51.55
2018-07-15T07:44:15.390Z,51.39
2018-07-15T07:45:18.860Z,51.45
2018-07-15T07:46:22.364Z,51.20
2018-07-15T07:47:25.763Z,51.26
2018-07-15T07:48:29.157Z,51.83
2018-07-15T07:49:32.548Z,50.91
2018-07-15T07:50:35.926Z,50.94
2018-07-15T07:51:39.377Z,51.15
2018-07-15T07:52:42.815Z,51.59
2018-07-15T07:53:46.226Z,51.28
2018-07-15T07:54:49.773Z,51.20
2018-07-15T07:55:53.311Z,51.51
2018-07-15T07:56:56.891Z,51.55
2018-07-15T07:58:00.596Z,50.97
2018-07-15T07:59:04.224Z,51.20
2018-07-15T08:00:07.831Z,51.40
2018-07-15T08:01:11.481Z,51.86
2018-07-15T08:02:15.159Z,51.85
2018-07-15T08:03:19.660Z,51.37
2018-07-15T08:04:23.088Z,51.18
2018-07-15T08:05:26.559Z,51.12
2018-07-15T08:06:30.006Z,51.53
2018-07-15T08:07:33.457Z,51.45
2018-07-15T08:08:37.125Z,51.43
2018-07-15T08:09:40.538Z,51.33
2018-07-15T08:10:43.971Z,50.81
2018-07-15T08:11:47.417Z,51.12
2018-07-15T08:12:50.847Z,51.43
2018-07-15T08:13:54.238Z,51.25
2018-07-15T08:14:57.650Z,51.31
2018-07-15T08:16:01.109Z,50.86
2018-07-15T08:17:04.552Z,50.65
2018-07-15T08:18:08.053Z,50.90
2018-07-15T08:19:11.691Z,51.37
2018-07-15T08:20:15.275Z,50.93
2018-07-15T08:21:18.704Z,51.23
2018-07-15T08:22:22.362Z,51.29
2018-07-15T08:23:25.981Z,51.17
2018-07-15T08:24:29.392Z,50.88
2018-07-15T08:25:32.852Z,51.24
2018-07-15T08:26:36.685Z,51.18
2018-07-15T08:27:40.211Z,51.49
2018-07-15T08:28:43.640Z,51.25
2018-07-15T08:29:58.448Z,51.23
2018-07-15T08:31:13.920Z,51.55
2018-07-15T08:32:17.727Z,51.68
2018-07-15T08:33:21.328Z,51.56
2018-07-15T08:34:24.831Z,51.59
2018-07-15T08:35:29.796Z,51.65
2018-07-15T08:36:33.212Z,51.76
2018-07-15T08:37:36.646Z,51.68
2018-07-15T08:38:40.417Z,51.88
2018-07-15T08:39:44.017Z,51.62
2018-07-15T08:40:47.555Z,51.86
2018-07-15T08:41:51.038Z,52.00
2018-07-15T08:42:54.487Z,52.30
2018-07-15T08:43:57.922Z,51.81
2018-07-15T08:45:01.383Z,51.89
2018-07-15T08:46:05.161Z,52.30
2018-07-15T08:47:08.691Z,52.36
2018-07-15T08:48:12.087Z,52.67
2018-07-15T08:49:15.462Z,52.22
2018-07-15T08:50:18.964Z,52.61
2018-07-15T08:51:22.379Z,52.58
2018-07-15T08:52:29.402Z,52.33
2018-07-15T08:53:33.079Z,52.26
2018-07-15T08:54:36.731Z,52.46
2018-07-15T08:55:40.106Z,52.56
2018-07-15T08:56:43.548Z,52.61
2018-07-15T08:57:46.974Z,52.39
2018-07-15T08:58:50.400Z,52.40
2018-07-15T08:59:53.780Z,52.28
2018-07-15T09:00:57.248Z,52.91
2018-07-15T09:02:00.643Z,53.12
2018-07-15T09:03:04.076Z,53.08
2018-07-15T09:04:07.525Z,52.58
2018-07-15T09:05:10.970Z,53.04
2018-07-15T09:06:14.394Z,53.27
2018-07-15T09:07:17.790Z,53.09
2018-07-15T09:08:21.526Z,53.39
2018-07-15T09:09:24.973Z,53.69
2018-07-15T09:10:28.614Z,53.04
2018-07-15T09:11:32.049Z,53.39
2018-07-15T09:12:35.858Z,52.90
2018-07-15T09:13:39.263Z,53.40
2018-07-15T09:14:42.658Z,53.33
2018-07-15T09:15:46.366Z,53.27
2018-07-15T09:16:49.975Z,53.59
2018-07-15T09:17:53.499Z,53.81
2018-07-15T09:18:56.924Z,53.27
2018-07-15T09:20:03.824Z,52.95
2018-07-15T09:21:07.502Z,53.65
2018-07-15T09:22:10.923Z,53.65
2018-07-15T09:23:14.487Z,53.43
2018-07-15T09:24:18.075Z,53.48
2018-07-15T09:25:21.496Z,53.75
2018-07-15T09:26:24.970Z,53.78
2018-07-15T09:27:28.410Z,53.92
2018-07-15T09:28:31.820Z,53.25
2018-07-15T09:29:35.268Z,53.03
2018-07-15T09:30:38.660Z,53.13
2018-07-15T09:31:42.136Z,53.08
2018-07-15T09:32:45.727Z,53.30
2018-07-15T09:33:49.338Z,53.22
2018-07-15T09:34:52.757Z,53.60
2018-07-15T09:35:56.564Z,53.40
2018-07-15T09:37:00.208Z,53.70
2018-07-15T09:38:03.639Z,53.13
2018-07-15T09:39:08.144Z,53.57
2018-07-15T09:40:11.620Z,53.54
2018-07-15T09:41:15.142Z,53.45
2018-07-15T09:42:18.536Z,53.36
2018-07-15T09:43:22.035Z,53.50
2018-07-15T09:44:25.466Z,53.71
2018-07-15T09:45:29.055Z,53.34
2018-07-15T09:46:32.534Z,53.37
2018-07-15T09:47:35.980Z,53.10
2018-07-15T09:48:39.430Z,53.62
2018-07-15T09:49:42.925Z,53.40
2018-07-15T09:50:46.360Z,53.41
2018-07-15T09:51:49.926Z,53.13
2018-07-15T09:52:53.346Z,53.18
2018-07-15T09:53:57.252Z,53.41
2018-07-15T09:55:01.081Z,53.34
2018-07-15T09:56:09.187Z,53.61
2018-07-15T09:57:20.279Z,53.42
2018-07-15T09:58:25.316Z,53.18
2018-07-15T09:59:28.736Z,53.14
2018-07-15T10:00:37.457Z,53.42
2018-07-15T10:01:40.946Z,53.35
2018-07-15T10:02:44.735Z,52.91
2018-07-15T10:03:48.166Z,53.42
2018-07-15T10:04:51.590Z,53.22
2018-07-15T10:05:56.384Z,53.23
2018-07-15T10:06:59.800Z,53.00
2018-07-15T10:08:03.368Z,52.75
2018-07-15T10:09:07.472Z,52.76
2018-07-15T10:10:10.865Z,53.00
2018-07-15T10:11:14.286Z,53.51
2018-07-15T10:12:17.695Z,53.12
2018-07-15T10:13:21.118Z,53.10
2018-07-15T10:14:24.535Z,53.70
2018-07-15T10:15:27.972Z,53.50
2018-07-15T10:16:31.368Z,52.58
2018-07-15T10:17:34.822Z,52.81
2018-07-15T10:18:38.222Z,52.65
2018-07-15T10:19:41.719Z,53.44
2018-07-15T10:20:45.145Z,52.61
2018-07-15T10:21:48.567Z,52.98
2018-07-15T10:22:52.007Z,52.72
2018-07-15T10:23:55.456Z,53.33
2018-07-15T10:24:58.852Z,53.41
2018-07-15T10:26:02.294Z,53.18
2018-07-15T10:27:05.798Z,52.59
2018-07-15T10:28:09.237Z,53.22
2018-07-15T10:29:12.614Z,52.60
2018-07-15T10:30:16.029Z,52.63
2018-07-15T10:31:19.438Z,52.64
2018-07-15T10:32:22.868Z,52.68
2018-07-15T10:33:26.334Z,52.95
2018-07-15T10:34:29.711Z,53.42
2018-07-15T10:35:33.123Z,53.07
2018-07-15T10:36:36.532Z,53.49
2018-07-15T10:37:39.943Z,53.00
2018-07-15T10:38:43.344Z,53.52
2018-07-15T10:39:46.793Z,52.76
2018-07-15T10:40:50.193Z,53.73
2018-07-15T10:41:53.584Z,52.96
2018-07-15T10:42:57.845Z,53.87
2018-07-15T10:44:01.293Z,53.35
2018-07-15T10:45:04.817Z,53.31
2018-07-15T10:46:08.311Z,53.43
2018-07-15T10:47:11.750Z,53.49
2018-07-15T10:48:15.383Z,54.02
2018-07-15T10:49:18.794Z,53.69
2018-07-15T10:50:22.228Z,53.05
2018-07-15T10:51:25.661Z,53.82
2018-07-15T10:52:29.121Z,53.00
2018-07-15T10:53:32.519Z,53.65
2018-07-15T10:54:36.407Z,52.98
2018-07-15T10:55:39.848Z,52.96
2018-07-15T10:56:43.258Z,53.24
2018-07-15T10:57:46.697Z,54.00
2018-07-15T10:58:50.086Z,53.73
2018-07-15T10:59:54.017Z,53.44
2018-07-15T11:00:58.600Z,53.51
2018-07-15T11:02:02.102Z,53.87
2018-07-15T11:03:05.651Z,53.99
2018-07-15T11:04:09.073Z,54.86
2018-07-15T11:05:12.455Z,54.00
2018-07-15T11:06:15.893Z,53.96
2018-07-15T11:07:19.359Z,54.98
2018-07-15T11:08:22.769Z,54.75
2018-07-15T11:09:26.233Z,54.75
2018-07-15T11:10:31.624Z,54.41
2018-07-15T11:11:35.061Z,54.39
2018-07-15T11:12:38.480Z,54.62
2018-07-15T11:13:41.906Z,54.19
2018-07-15T11:14:45.342Z,54.34
2018-07-15T11:15:48.794Z,54.49
2018-07-15T11:16:52.201Z,55.22
2018-07-15T11:17:55.663Z,54.59
2018-07-15T11:18:59.088Z,54.71
2018-07-15T11:20:02.617Z,54.89
2018-07-15T11:21:06.604Z,54.42
2018-07-15T11:22:10.950Z,54.67
2018-07-15T11:23:16.091Z,54.44
2018-07-15T11:24:20.769Z,55.10
2018-07-15T11:25:24.502Z,54.56
2018-07-15T11:26:27.916Z,54.77
2018-07-15T11:27:31.364Z,55.01
2018-07-15T11:28:35.124Z,54.64
2018-07-15T11:29:38.642Z,54.75
2018-07-15T11:30:42.282Z,55.01
2018-07-15T11:31:45.912Z,54.63
2018-07-15T11:32:51.543Z,54.68
2018-07-15T11:33:54.947Z,55.04
2018-07-15T11:34:58.513Z,55.02
2018-07-15T11:36:01.953Z,55.28
2018-07-15T11:37:05.636Z,54.88
2018-07-15T11:38:09.119Z,54.62
2018-07-15T11:39:12.563Z,55.27
2018-07-15T11:40:16.004Z,54.91
2018-07-15T11:41:21.768Z,54.69
2018-07-15T11:42:25.319Z,54.54
2018-07-15T11:43:28.716Z,55.00
2018-07-15T11:44:32.281Z,54.75
2018-07-15T11:45:35.721Z,55.15
2018-07-15T11:46:39.158Z,54.69
2018-07-15T11:47:42.721Z,55.21
2018-07-15T11:48:46.159Z,54.89
2018-07-15T11:49:49.576Z,54.94
2018-07-15T11:50:52.957Z,54.60
2018-07-15T11:51:56.354Z,55.40
2018-07-15T11:52:59.751Z,54.95
2018-07-15T11:54:03.181Z,54.86
2018-07-15T11:55:07.476Z,54.66
2018-07-15T11:56:10.932Z,54.72
2018-07-15T11:57:14.376Z,54.70
2018-07-15T11:58:17.794Z,54.44
2018-07-15T11:59:21.226Z,55.16
2018-07-15T12:00:24.636Z,55.24
2018-07-15T12:01:28.112Z,55.12
2018-07-15T12:02:31.537Z,54.69
2018-07-15T12:03:35.016Z,54.75
2018-07-15T12:04:38.448Z,55.52
2018-07-15T12:05:41.863Z,54.47
2018-07-15T12:06:45.310Z,55.04
2018-07-15T12:07:48.713Z,55.01
2018-07-15T12:08:52.168Z,54.56
2018-07-15T12:09:55.553Z,55.30
2018-07-15T12:10:59.154Z,55.08
2018-07-15T12:12:02.597Z,54.54
2018-07-15T12:13:06.065Z,54.81
2018-07-15T12:14:09.489Z,54.63
2018-07-15T12:15:12.923Z,54.44
2018-07-15T12:16:16.355Z,55.18
2018-07-15T12:17:19.791Z,55.09
2018-07-15T12:18:23.241Z,55.21
2018-07-15T12:19:26.703Z,55.17
2018-07-15T12:20:30.192Z,55.06
2018-07-15T12:21:33.645Z,54.70
2018-07-15T12:22:37.074Z,54.32
2018-07-15T12:23:40.808Z,55.40
2018-07-15T12:24:44.268Z,54.63
2018-07-15T12:25:47.681Z,55.30
2018-07-15T12:26:51.100Z,55.09
2018-07-15T12:27:54.508Z,54.73
2018-07-15T12:28:57.909Z,54.23
2018-07-15T12:30:01.481Z,55.27
2018-07-15T12:31:04.881Z,54.26
2018-07-15T12:32:08.446Z,54.35
2018-07-15T12:33:11.844Z,53.99
2018-07-15T12:34:15.262Z,54.90
2018-07-15T12:35:18.764Z,54.69
2018-07-15T12:36:23.680Z,55.16
2018-07-15T12:37:28.429Z,54.31
2018-07-15T12:38:32.025Z,54.56
2018-07-15T12:39:35.664Z,54.94
2018-07-15T12:40:39.100Z,54.83
2018-07-15T12:41:42.849Z,54.37
2018-07-15T12:42:46.488Z,54.38
2018-07-15T12:43:50.122Z,55.21
2018-07-15T12:44:53.528Z,54.67
2018-07-15T12:45:56.964Z,54.20
2018-07-15T12:47:00.515Z,54.70
2018-07-15T12:48:04.653Z,55.06
2018-07-15T12:49:08.701Z,55.01
2018-07-15T12:50:12.618Z,54.64
2018-07-15T12:51:16.080Z,55.29
2018-07-15T12:52:19.601Z,54.38
2018-07-15T12:53:23.023Z,54.42
2018-07-15T12:54:30.089Z,55.14
2018-07-15T12:55:34.610Z,54.90
2018-07-15T12:56:39.506Z,54.23
2018-07-15T12:57:43.002Z,54.93
2018-07-15T12:58:46.709Z,54.30
2018-07-15T12:59:50.154Z,55.02
2018-07-15T13:00:53.781Z,54.94
2018-07-15T13:01:57.242Z,55.00
2018-07-15T13:03:02.901Z,55.20
2018-07-15T13:04:06.431Z,55.28
2018-07-15T13:05:09.998Z,55.63
2018-07-15T13:06:14.552Z,55.63
2018-07-15T13:07:19.684Z,55.77
2018-07-15T13:08:23.362Z,55.60
2018-07-15T13:09:27.420Z,55.53
2018-07-15T13:10:30.867Z,55.17
2018-07-15T13:11:34.368Z,56.00
2018-07-15T13:12:37.782Z,55.87
2018-07-15T13:13:42.207Z,56.08
2018-07-15T13:14:45.616Z,54.81
2018-07-15T13:15:49.496Z,54.88
2018-07-15T13:16:54.256Z,55.66
2018-07-15T13:17:58.013Z,54.43
2018-07-15T13:19:01.523Z,53.97
2018-07-15T13:20:04.968Z,54.34
2018-07-15T13:21:08.474Z,53.86
2018-07-15T13:22:11.893Z,52.76
2018-07-15T13:23:15.425Z,52.42
2018-07-15T13:24:18.853Z,52.10
2018-07-15T13:25:22.303Z,52.27
2018-07-15T13:26:25.725Z,52.56
2018-07-15T13:27:29.176Z,52.86
2018-07-15T13:28:32.596Z,52.80
2018-07-15T13:29:36.026Z,52.23
2018-07-15T13:30:39.484Z,52.74
2018-07-15T13:31:42.910Z,53.50
2018-07-15T13:32:46.328Z,52.91
2018-07-15T13:33:49.736Z,53.16
2018-07-15T13:34:53.175Z,52.88
2018-07-15T13:35:56.612Z,52.90
2018-07-15T13:37:00.867Z,52.87
2018-07-15T13:38:05.366Z,53.28
2018-07-15T13:39:09.153Z,52.99